createdAt,value
2022-12-18T00:01:34.978Z,0.29
2022-12-18T00:04:15.807Z,0.32
2022-12-18T00:06:42.763Z,0.33
2022-12-18T00:09:11.322Z,0.36
2022-12-18T00:11:38.047Z,0.38
2022-12-18T00:14:05.036Z,0.35
2022-12-18T00:16:33.431Z,0.33
2022-12-18T00:19:00.872Z,0.23
2022-12-18T00:21:29.335Z,0.19
2022-12-18T00:23:56.985Z,0.16
2022-12-18T00:26:26.489Z,0.15
2022-12-18T00:28:56.148Z,0.16
2022-12-18T00:31:25.226Z,0.18
2022-12-18T00:33:57.476Z,0.15
2022-12-18T00:36:28.121Z,0.15
2022-12-18T00:38:56.406Z,0.14
2022-12-18T00:41:42.883Z,0.13
2022-12-18T00:44:12.940Z,0.13
2022-12-18T00:46:40.214Z,0.12
2022-12-18T00:49:07.773Z,0.11
2022-12-18T00:51:34.646Z,0.06
2022-12-18T00:54:01.582Z,0.05
2022-12-18T00:56:28.258Z,-0.01
2022-12-18T00:58:55.111Z,-0.05
2022-12-18T01:01:22.024Z,-0.02
2022-12-18T01:03:48.904Z,0.02
2022-12-18T01:06:17.692Z,0.04
2022-12-18T01:08:45.071Z,0.05
2022-12-18T01:11:16.428Z,0.04
2022-12-18T01:13:43.348Z,0.05
2022-12-18T01:16:13.201Z,0.08
2022-12-18T01:18:40.353Z,0.10
2022-12-18T01:21:09.125Z,0.05
2022-12-18T01:23:38.626Z,-0.03
2022-12-18T01:26:11.237Z,-0.12
2022-12-18T01:28:41.138Z,-0.14
2022-12-18T01:31:13.694Z,-0.12
2022-12-18T01:33:41.590Z,-0.07
2022-12-18T01:36:15.433Z,-0.05
2022-12-18T01:38:42.380Z,-0.05
2022-12-18T01:41:10.057Z,-0.09
2022-12-18T01:43:53.144Z,-0.13
2022-12-18T01:46:23.097Z,-0.20
2022-12-18T01:48:58.806Z,-0.28
2022-12-18T01:51:30.086Z,-0.34
2022-12-18T01:53:58.093Z,-0.39
2022-12-18T01:56:24.835Z,-0.45
2022-12-18T01:59:00.434Z,-0.50
2022-12-18T02:01:27.706Z,-0.57
2022-12-18T02:03:54.471Z,-0.61
2022-12-18T02:06:40.232Z,-0.65
2022-12-18T02:09:34.297Z,-0.65
2022-12-18T02:12:16.486Z,-0.68
2022-12-18T02:14:54.357Z,-0.73
2022-12-18T02:17:37.082Z,-0.76
2022-12-18T02:20:19.660Z,-0.81
2022-12-18T02:23:16.418Z,-0.86
2022-12-18T02:25:58.682Z,-0.94
2022-12-18T02:28:31.677Z,-1.01
2022-12-18T02:31:02.139Z,-1.10
2022-12-18T02:33:31.410Z,-1.15
2022-12-18T02:36:00.622Z,-1.14
2022-12-18T02:38:30.206Z,-1.13
2022-12-18T02:40:58.097Z,-1.13
2022-12-18T02:43:24.865Z,-1.15
2022-12-18T02:45:58.582Z,-1.22
2022-12-18T02:48:35.891Z,-1.29
2022-12-18T02:51:24.443Z,-1.41
2022-12-18T02:54:09.710Z,-1.54
2022-12-18T02:56:54.568Z,-1.66
2022-12-18T02:59:37.412Z,-1.77
2022-12-18T03:02:22.640Z,-1.83
2022-12-18T03:05:06.561Z,-1.88
2022-12-18T03:07:45.293Z,-1.90
2022-12-18T03:10:17.289Z,-1.85
2022-12-18T03:12:52.785Z,-1.80
2022-12-18T03:15:35.309Z,-1.77
2022-12-18T03:18:25.468Z,-1.70
2022-12-18T03:20:56.978Z,-1.68
2022-12-18T03:23:28.244Z,-1.65
2022-12-18T03:26:04.373Z,-1.58
2022-12-18T03:28:42.617Z,-1.50
2022-12-18T03:31:11.700Z,-1.43
2022-12-18T03:33:47.532Z,-1.37
2022-12-18T03:36:15.350Z,-1.32
2022-12-18T03:38:42.561Z,-1.27
2022-12-18T03:41:23.864Z,-1.24
2022-12-18T03:44:16.344Z,-1.18
2022-12-18T03:47:03.575Z,-1.18
2022-12-18T03:50:08.367Z,-1.16
2022-12-18T03:52:54.555Z,-1.15
2022-12-18T03:55:26.181Z,-1.19
2022-12-18T03:57:59.344Z,-1.19
2022-12-18T04:00:28.408Z,-1.16
2022-12-18T04:03:02.330Z,-1.10
2022-12-18T04:05:37.392Z,-1.04
2022-12-18T04:08:05.546Z,-0.95
2022-12-18T04:10:36.288Z,-0.90
2022-12-18T04:13:03.534Z,-0.89
2022-12-18T04:15:35.116Z,-0.89
2022-12-18T04:18:03.896Z,-0.87
2022-12-18T04:20:36.781Z,-0.92
2022-12-18T04:23:03.787Z,-0.95
2022-12-18T04:25:30.649Z,-0.95
2022-12-18T04:28:06.032Z,-0.91
2022-12-18T04:30:33.435Z,-0.94
2022-12-18T04:33:00.393Z,-0.97
2022-12-18T04:35:27.624Z,-0.98
2022-12-18T04:37:55.430Z,-0.98
2022-12-18T04:40:22.504Z,-1.01
2022-12-18T04:42:49.624Z,-1.03
2022-12-18T04:45:16.747Z,-1.05
2022-12-18T04:47:43.444Z,-1.12
2022-12-18T04:50:10.231Z,-1.17
2022-12-18T04:52:36.980Z,-1.21
2022-12-18T04:55:04.162Z,-1.23
2022-12-18T04:57:33.667Z,-1.21
2022-12-18T05:00:00.326Z,-1.19
2022-12-18T05:02:27.238Z,-1.18
2022-12-18T05:04:54.090Z,-1.16
2022-12-18T05:07:20.764Z,-1.17
2022-12-18T05:09:47.626Z,-1.17
2022-12-18T05:12:14.322Z,-1.17
2022-12-18T05:14:41.129Z,-1.19
2022-12-18T05:17:07.973Z,-1.21
2022-12-18T05:19:34.776Z,-1.25
2022-12-18T05:22:02.194Z,-1.29
2022-12-18T05:24:28.886Z,-1.30
2022-12-18T05:26:55.591Z,-1.31
2022-12-18T05:29:22.403Z,-1.31
2022-12-18T05:31:49.228Z,-1.29
2022-12-18T05:34:16.257Z,-1.28
2022-12-18T05:36:43.164Z,-1.26
2022-12-18T05:39:11.364Z,-1.29
2022-12-18T05:41:38.282Z,-1.33
2022-12-18T05:44:05.430Z,-1.45
2022-12-18T05:46:32.723Z,-1.55
2022-12-18T05:49:01.504Z,-1.66
2022-12-18T05:51:28.453Z,-1.77
2022-12-18T05:53:55.608Z,-1.85
2022-12-18T05:56:23.627Z,-1.92
2022-12-18T05:58:54.604Z,-1.95
2022-12-18T06:01:24.421Z,-1.96
2022-12-18T06:03:51.376Z,-1.99
2022-12-18T06:06:21.201Z,-1.96
2022-12-18T06:08:48.638Z,-1.90
2022-12-18T06:11:22.410Z,-1.86
2022-12-18T06:13:58.296Z,-1.82
2022-12-18T06:16:27.951Z,-1.78
2022-12-18T06:19:03.190Z,-1.79
2022-12-18T06:21:30.925Z,-1.76
2022-12-18T06:24:00.108Z,-1.70
2022-12-18T06:26:28.467Z,-1.61
2022-12-18T06:28:56.446Z,-1.56
2022-12-18T06:31:23.528Z,-1.48
2022-12-18T06:33:50.661Z,-1.44
2022-12-18T06:36:17.735Z,-1.41
2022-12-18T06:38:45.245Z,-1.37
2022-12-18T06:41:17.917Z,-1.35
2022-12-18T06:43:45.357Z,-1.34
2022-12-18T06:46:12.540Z,-1.41
2022-12-18T06:48:39.395Z,-1.40
2022-12-18T06:51:06.206Z,-1.43
2022-12-18T06:53:33.484Z,-1.39
2022-12-18T06:56:09.917Z,-1.30
2022-12-18T06:58:38.467Z,-1.22
2022-12-18T07:01:07.775Z,-1.17
2022-12-18T07:03:34.827Z,-1.15
2022-12-18T07:06:01.665Z,-1.15
2022-12-18T07:08:30.349Z,-1.21
2022-12-18T07:10:57.621Z,-1.24
2022-12-18T07:13:24.451Z,-1.23
2022-12-18T07:15:51.149Z,-1.22
2022-12-18T07:18:17.876Z,-1.21
2022-12-18T07:20:45.261Z,-1.19
2022-12-18T07:23:12.961Z,-1.15
2022-12-18T07:25:40.128Z,-1.12
2022-12-18T07:28:07.037Z,-1.14
2022-12-18T07:30:33.887Z,-1.15
2022-12-18T07:33:00.636Z,-1.15
2022-12-18T07:35:27.582Z,-1.16
2022-12-18T07:37:54.406Z,-1.15
2022-12-18T07:40:21.316Z,-1.16
2022-12-18T07:42:48.112Z,-1.14
2022-12-18T07:45:14.902Z,-1.16
2022-12-18T07:47:41.877Z,-1.13
2022-12-18T07:50:09.228Z,-1.05
2022-12-18T07:52:35.953Z,-1.01
2022-12-18T07:55:03.092Z,-0.98
2022-12-18T08:00:16.900Z,-0.88
2022-12-18T08:02:43.741Z,-0.75
2022-12-18T08:05:10.759Z,-0.60
2022-12-18T08:07:38.043Z,-0.53
2022-12-18T08:10:05.748Z,-0.50
2022-12-18T08:12:33.023Z,-0.51
2022-12-18T08:14:59.819Z,-0.60
2022-12-18T08:17:26.484Z,-0.72
2022-12-18T08:19:53.380Z,-0.85
2022-12-18T08:22:20.308Z,-0.94
2022-12-18T08:24:47.134Z,-0.99
2022-12-18T08:27:28.858Z,-1.04
2022-12-18T08:29:57.571Z,-1.06
2022-12-18T08:32:25.779Z,-1.05
2022-12-18T08:34:52.768Z,-1.00
2022-12-18T08:37:19.636Z,-0.87
2022-12-18T08:39:46.295Z,-0.70
2022-12-18T08:42:31.773Z,-0.46
2022-12-18T08:45:02.699Z,-0.19
2022-12-18T08:47:29.518Z,0.05
2022-12-18T08:49:56.369Z,0.53
2022-12-18T08:52:23.032Z,1.02
2022-12-18T08:54:50.297Z,1.32
2022-12-18T08:57:17.120Z,1.52
2022-12-18T08:59:43.924Z,1.75
2022-12-18T09:02:12.163Z,1.98
2022-12-18T09:04:40.338Z,2.47
2022-12-18T09:07:07.376Z,2.95
2022-12-18T09:09:34.239Z,3.23
2022-12-18T09:12:01.031Z,3.51
2022-12-18T09:14:27.889Z,4.27
2022-12-18T09:16:54.528Z,5.80
2022-12-18T09:19:21.278Z,7.64
2022-12-18T09:21:48.583Z,8.92
2022-12-18T09:24:16.412Z,9.84
2022-12-18T09:26:46.872Z,9.30
2022-12-18T09:29:18.856Z,8.80
2022-12-18T09:31:47.314Z,9.57
2022-12-18T09:34:14.119Z,10.23
2022-12-18T09:36:40.841Z,9.44
2022-12-18T09:39:08.754Z,8.51
2022-12-18T09:41:47.637Z,7.81
2022-12-18T09:44:20.443Z,7.20
2022-12-18T09:47:19.405Z,6.43
2022-12-18T09:49:49.987Z,5.68
2022-12-18T09:52:26.855Z,5.52
2022-12-18T09:55:12.218Z,5.24
2022-12-18T09:57:48.132Z,5.28
2022-12-18T10:00:25.454Z,5.87
2022-12-18T10:02:56.955Z,5.91
2022-12-18T10:05:55.039Z,6.01
2022-12-18T10:08:54.161Z,7.15
2022-12-18T10:11:33.850Z,7.35
2022-12-18T10:14:38.809Z,7.15
2022-12-18T10:17:34.415Z,7.04
2022-12-18T10:20:16.589Z,7.00
2022-12-18T10:23:10.970Z,7.22
2022-12-18T10:26:08.434Z,7.93
2022-12-18T10:28:41.115Z,9.13
2022-12-18T10:31:17.441Z,9.71
2022-12-18T10:33:44.660Z,9.97
2022-12-18T10:36:11.989Z,10.32
2022-12-18T10:38:39.757Z,9.77
2022-12-18T10:41:12.065Z,9.01
2022-12-18T10:43:40.244Z,9.04
2022-12-18T10:46:09.761Z,10.15
2022-12-18T10:48:39.944Z,11.90
2022-12-18T10:51:12.088Z,13.40
2022-12-18T10:53:43.100Z,14.38
2022-12-18T10:56:10.173Z,14.06
2022-12-18T10:58:39.238Z,13.33
2022-12-18T11:01:18.118Z,13.30
2022-12-18T11:04:02.039Z,12.38
2022-12-18T11:06:32.969Z,11.40
2022-12-18T11:09:12.640Z,11.04
2022-12-18T11:11:41.396Z,11.86
2022-12-18T11:14:22.320Z,13.37
2022-12-18T11:19:41.646Z,14.86
2022-12-18T11:22:41.137Z,14.76
2022-12-18T11:25:34.488Z,15.26
2022-12-18T11:28:06.582Z,14.77
2022-12-18T11:30:37.471Z,13.84
2022-12-18T11:33:22.347Z,12.47
2022-12-18T11:36:05.166Z,13.03
2022-12-18T11:38:36.354Z,13.55
2022-12-18T11:41:03.012Z,13.48
2022-12-18T11:43:45.734Z,13.82
2022-12-18T11:46:19.995Z,14.35
2022-12-18T11:48:58.234Z,15.00
2022-12-18T11:51:42.259Z,15.59
2022-12-18T11:54:14.977Z,15.57
2022-12-18T11:56:46.469Z,14.90
2022-12-18T11:59:56.455Z,13.55
2022-12-18T12:02:49.853Z,11.59
2022-12-18T12:05:31.953Z,9.75
2022-12-18T12:08:12.184Z,8.73
2022-12-18T12:10:47.801Z,7.77
2022-12-18T12:13:39.093Z,6.90
2022-12-18T12:16:12.984Z,6.06
2022-12-18T12:19:14.313Z,5.59
2022-12-18T12:21:54.233Z,4.95
2022-12-18T12:24:39.921Z,4.56
2022-12-18T12:27:24.734Z,4.22
2022-12-18T12:30:08.806Z,3.98
2022-12-18T12:33:03.142Z,3.68
2022-12-18T12:35:35.725Z,3.57
2022-12-18T12:38:11.576Z,3.29
2022-12-18T12:40:53.943Z,3.21
2022-12-18T12:43:29.831Z,2.91
2022-12-18T12:46:14.574Z,2.62
2022-12-18T12:48:51.784Z,2.34
2022-12-18T12:51:40.626Z,2.11
2022-12-18T12:54:18.121Z,1.98
2022-12-18T12:57:14.911Z,1.95
2022-12-18T13:00:06.731Z,1.94
2022-12-18T13:02:40.373Z,1.86
2022-12-18T13:05:35.023Z,1.74
2022-12-18T13:08:07.141Z,1.65
2022-12-18T13:10:38.927Z,1.63
2022-12-18T13:13:21.167Z,1.63
2022-12-18T13:16:07.000Z,1.54
2022-12-18T13:18:35.093Z,1.46
2022-12-18T13:21:08.490Z,1.42
2022-12-18T13:23:39.928Z,1.37
2022-12-18T13:26:10.265Z,1.31
2022-12-18T13:28:46.682Z,1.29
2022-12-18T13:31:15.454Z,1.26
2022-12-18T13:34:16.647Z,1.25
2022-12-18T13:36:34.215Z,1.21
2022-12-18T13:39:12.276Z,1.08
2022-12-18T13:41:39.790Z,0.95
2022-12-18T13:44:20.654Z,0.85
2022-12-18T13:46:51.542Z,0.77
2022-12-18T13:49:30.879Z,0.67
2022-12-18T13:51:57.857Z,0.56
2022-12-18T13:54:36.220Z,0.50
2022-12-18T13:57:05.211Z,0.42
2022-12-18T13:59:37.503Z,0.35
2022-12-18T14:02:25.548Z,0.26
2022-12-18T14:04:54.089Z,0.16
2022-12-18T14:07:33.086Z,0.10
2022-12-18T14:10:41.793Z,0.04
2022-12-18T14:13:07.302Z,-0.07
2022-12-18T14:15:35.992Z,-0.15
2022-12-18T14:18:26.149Z,-0.22
2022-12-18T14:20:57.231Z,-0.31
2022-12-18T14:23:30.636Z,-0.40
2022-12-18T14:26:02.101Z,-0.48
2022-12-18T14:28:32.684Z,-0.59
2022-12-18T14:30:59.586Z,-0.70
2022-12-18T14:33:28.308Z,-0.78
2022-12-18T14:36:06.108Z,-0.83
2022-12-18T14:38:32.769Z,-0.91
2022-12-18T14:41:14.185Z,-0.97
2022-12-18T14:43:43.646Z,-1.04
2022-12-18T14:46:37.333Z,-1.08
2022-12-18T14:49:33.636Z,-1.14
2022-12-18T14:52:06.174Z,-1.22
2022-12-18T14:54:37.439Z,-1.30
2022-12-18T14:57:05.690Z,-1.36
2022-12-18T14:59:33.275Z,-1.42
2022-12-18T15:02:24.175Z,-1.48
2022-12-18T15:05:05.166Z,-1.52
2022-12-18T15:07:49.118Z,-1.54
2022-12-18T15:10:20.587Z,-1.53
2022-12-18T15:13:06.765Z,-1.49
2022-12-18T15:15:34.037Z,-1.47
2022-12-18T15:18:03.912Z,-1.46
2022-12-18T15:20:33.551Z,-1.49
2022-12-18T15:23:00.425Z,-1.54
2022-12-18T15:25:37.629Z,-1.58
2022-12-18T15:28:16.374Z,-1.62
2022-12-18T15:30:59.051Z,-1.70
2022-12-18T15:33:30.152Z,-1.77
2022-12-18T15:36:02.144Z,-1.83
2022-12-18T15:38:28.968Z,-1.88
2022-12-18T15:40:55.860Z,-1.93
2022-12-18T15:43:37.045Z,-1.99
2022-12-18T15:46:11.461Z,-2.07
2022-12-18T15:48:41.898Z,-2.14
2022-12-18T15:51:21.932Z,-2.19
2022-12-18T15:53:52.868Z,-2.26
2022-12-18T15:56:39.025Z,-2.31
2022-12-18T15:59:12.433Z,-2.37
2022-12-18T16:01:42.693Z,-2.43
2022-12-18T16:04:13.431Z,-2.50
2022-12-18T16:07:05.668Z,-2.55
2022-12-18T16:09:27.398Z,-2.60
2022-12-18T16:11:54.472Z,-2.64
2022-12-18T16:14:24.224Z,-2.67
2022-12-18T16:17:03.008Z,-2.72
2022-12-18T16:19:30.573Z,-2.77
2022-12-18T16:21:59.090Z,-2.78
2022-12-18T16:24:29.305Z,-2.78
2022-12-18T16:26:59.571Z,-2.82
2022-12-18T16:29:27.939Z,-2.87
2022-12-18T16:31:56.120Z,-2.93
2022-12-18T16:34:28.851Z,-2.99
2022-12-18T16:37:05.158Z,-3.07
2022-12-18T16:39:37.487Z,-3.17
2022-12-18T16:42:16.673Z,-3.25
2022-12-18T16:44:44.213Z,-3.26
2022-12-18T16:47:11.376Z,-3.23
2022-12-18T16:49:44.770Z,-3.22
2022-12-18T16:52:13.720Z,-3.27
2022-12-18T16:54:40.669Z,-3.33
2022-12-18T16:57:12.483Z,-3.34
2022-12-18T16:59:39.313Z,-3.35
2022-12-18T17:02:14.893Z,-3.38
2022-12-18T17:04:42.919Z,-3.44
2022-12-18T17:07:10.563Z,-3.44
2022-12-18T17:09:38.534Z,-3.47
2022-12-18T17:12:05.994Z,-3.52
2022-12-18T17:14:33.294Z,-3.59
2022-12-18T17:17:20.495Z,-3.65
2022-12-18T17:19:47.351Z,-3.71
2022-12-18T17:22:14.057Z,-3.73
2022-12-18T17:24:40.757Z,-3.73
2022-12-18T17:27:08.312Z,-3.69
2022-12-18T17:29:35.558Z,-3.66
2022-12-18T17:32:02.510Z,-3.64
2022-12-18T17:34:30.115Z,-3.61
2022-12-18T17:36:57.785Z,-3.58
2022-12-18T17:39:25.240Z,-3.58
2022-12-18T17:41:52.149Z,-3.65
2022-12-18T17:44:18.867Z,-3.77
2022-12-18T17:46:46.336Z,-3.87
2022-12-18T17:49:13.416Z,-3.87
2022-12-18T17:51:42.322Z,-3.87
2022-12-18T17:54:09.596Z,-3.89
2022-12-18T17:56:36.503Z,-3.91
2022-12-18T17:59:03.294Z,-3.95
2022-12-18T18:01:30.116Z,-4.05
2022-12-18T18:03:57.117Z,-4.13
2022-12-18T18:06:24.252Z,-4.17
2022-12-18T18:08:51.566Z,-4.18
2022-12-18T18:11:40.016Z,-4.18
2022-12-18T18:14:13.199Z,-4.18
2022-12-18T18:16:42.916Z,-4.19
2022-12-18T18:19:14.123Z,-4.19
2022-12-18T18:21:43.304Z,-4.20
2022-12-18T18:24:13.473Z,-4.20
2022-12-18T18:26:41.179Z,-4.22
2022-12-18T18:29:08.566Z,-4.23
2022-12-18T18:31:40.847Z,-4.23
2022-12-18T18:34:14.790Z,-4.29
2022-12-18T18:36:41.751Z,-4.35
2022-12-18T18:39:09.055Z,-4.38
2022-12-18T18:41:37.513Z,-4.44
2022-12-18T18:44:04.345Z,-4.44
2022-12-18T18:46:31.064Z,-4.39
2022-12-18T18:48:57.853Z,-4.31
2022-12-18T18:51:25.671Z,-4.22
2022-12-18T18:53:54.629Z,-4.16
2022-12-18T18:59:09.763Z,-4.06
2022-12-18T19:01:36.579Z,-4.05
2022-12-18T19:04:05.034Z,-4.07
2022-12-18T19:06:32.383Z,-4.10
2022-12-18T19:09:01.932Z,-4.14
2022-12-18T19:11:47.384Z,-4.17
2022-12-18T19:14:15.150Z,-4.18
2022-12-18T19:16:44.331Z,-4.20
2022-12-18T19:19:12.377Z,-4.23
2022-12-18T19:21:39.525Z,-4.25
2022-12-18T19:24:06.668Z,-4.28
2022-12-18T19:26:33.791Z,-4.30
2022-12-18T19:29:05.153Z,-4.31
2022-12-18T19:31:35.517Z,-4.30
2022-12-18T19:34:06.084Z,-4.27
2022-12-18T19:36:35.139Z,-4.24
2022-12-18T19:39:10.984Z,-4.24
2022-12-18T19:41:39.346Z,-4.25
2022-12-18T19:44:08.091Z,-4.29
2022-12-18T19:46:35.901Z,-4.31
2022-12-18T19:49:02.911Z,-4.32
2022-12-18T19:51:31.732Z,-4.35
2022-12-18T19:54:01.732Z,-4.39
2022-12-18T19:56:31.334Z,-4.46
2022-12-18T19:58:58.607Z,-4.52
2022-12-18T20:01:27.227Z,-4.57
2022-12-18T20:03:55.199Z,-4.60
2022-12-18T20:06:46.036Z,-4.61
2022-12-18T20:09:12.783Z,-4.59
2022-12-18T20:11:42.046Z,-4.60
2022-12-18T20:14:11.321Z,-4.61
2022-12-18T20:16:38.147Z,-4.61
2022-12-18T20:19:05.620Z,-4.61
2022-12-18T20:21:32.743Z,-4.60
2022-12-18T20:24:00.683Z,-4.61
2022-12-18T20:26:27.565Z,-4.61
2022-12-18T20:28:54.837Z,-4.64
2022-12-18T20:31:22.345Z,-4.69
2022-12-18T20:33:49.920Z,-4.71
2022-12-18T20:36:22.542Z,-4.73
2022-12-18T20:38:57.174Z,-4.76
2022-12-18T20:41:26.154Z,-4.78
2022-12-18T20:43:55.075Z,-4.79
2022-12-18T20:46:21.966Z,-4.82
2022-12-18T20:48:48.732Z,-4.87
2022-12-18T20:51:19.408Z,-4.92
2022-12-18T20:53:47.390Z,-4.97
2022-12-18T20:56:21.150Z,-5.01
2022-12-18T20:58:50.005Z,-5.05
2022-12-18T21:01:20.135Z,-5.08
2022-12-18T21:03:47.756Z,-5.08
2022-12-18T21:06:17.893Z,-5.09
2022-12-18T21:08:44.790Z,-5.09
2022-12-18T21:11:32.213Z,-5.09
2022-12-18T21:13:59.907Z,-5.10
2022-12-18T21:16:26.701Z,-5.13
2022-12-18T21:18:54.466Z,-5.19
2022-12-18T21:21:26.367Z,-5.24
2022-12-18T21:23:53.948Z,-5.25
2022-12-18T21:26:25.879Z,-5.27
2022-12-18T21:28:55.169Z,-5.27
2022-12-18T21:31:24.408Z,-5.26
2022-12-18T21:33:51.914Z,-5.29
2022-12-18T21:36:19.968Z,-5.37
2022-12-18T21:38:46.676Z,-5.46
2022-12-18T21:41:37.521Z,-5.53
2022-12-18T21:44:11.375Z,-5.65
2022-12-18T21:46:40.384Z,-5.77
2022-12-18T21:49:08.240Z,-5.90
2022-12-18T21:51:36.189Z,-6.03
2022-12-18T21:54:03.815Z,-6.10
2022-12-18T21:56:47.717Z,-6.14
2022-12-18T21:59:19.329Z,-6.19
2022-12-18T22:01:47.346Z,-6.25
2022-12-18T22:04:15.475Z,-6.40
2022-12-18T22:06:42.588Z,-6.44
2022-12-18T22:09:11.748Z,-6.45
2022-12-18T22:11:38.545Z,-6.45
2022-12-18T22:14:05.901Z,-6.46
2022-12-18T22:16:32.693Z,-6.44
2022-12-18T22:18:59.353Z,-6.40
2022-12-18T22:21:31.331Z,-6.35
2022-12-18T22:24:00.578Z,-6.30
2022-12-18T22:26:33.879Z,-6.20
2022-12-18T22:29:23.683Z,-6.18
2022-12-18T22:31:50.511Z,-6.11
2022-12-18T22:34:20.650Z,-6.05
2022-12-18T22:36:50.253Z,-6.05
2022-12-18T22:39:23.048Z,-6.20
2022-12-18T22:41:50.067Z,-6.35
2022-12-18T22:44:18.122Z,-6.40
2022-12-18T22:46:47.782Z,-6.44
2022-12-18T22:49:23.158Z,-6.46
2022-12-18T22:51:51.096Z,-6.50
2022-12-18T22:54:18.152Z,-6.52
2022-12-18T22:56:45.232Z,-6.53
2022-12-18T22:59:19.367Z,-6.59
2022-12-18T23:01:47.968Z,-6.64
2022-12-18T23:04:16.871Z,-6.65
2022-12-18T23:06:44.884Z,-6.68
2022-12-18T23:09:17.866Z,-6.72
2022-12-18T23:11:46.140Z,-6.78
2022-12-18T23:14:13.026Z,-6.83
2022-12-18T23:16:39.861Z,-6.83
2022-12-18T23:19:07.496Z,-6.84
2022-12-18T23:21:34.652Z,-6.83
2022-12-18T23:24:02.683Z,-6.83
2022-12-18T23:26:29.441Z,-6.81
2022-12-18T23:28:56.373Z,-6.81
2022-12-18T23:31:26.472Z,-6.79
2022-12-18T23:33:55.628Z,-6.73
2022-12-18T23:36:23.172Z,-6.70
2022-12-18T23:38:55.149Z,-6.72
2022-12-18T23:41:24.386Z,-6.74
2022-12-18T23:43:51.553Z,-6.79
2022-12-18T23:46:21.467Z,-6.80
2022-12-18T23:48:48.993Z,-6.81
2022-12-18T23:51:17.059Z,-6.89
2022-12-18T23:53:44.711Z,-7.02
2022-12-18T23:56:14.035Z,-7.00
2022-12-18T23:58:42.477Z,-6.97
